Time;durP1;ratioP1;P1;durP2;ratioP2;P2;SDS_P1;SDS_P2;PMS_P1;PMS_P2;Temp;Humidity;BMP_temperature;BMP_pressure;BME280_temperature;BME280_humidity;BME280_pressure;Samples;Min_cycle;Max_cycle;Signal;HPM_P1;HPM_P2
2022/01/29 00:00:14;;;;;;;9.68;5.75;;;;;;;;;;5004882;28;20026;-34
2022/01/29 00:02:40;;;;;;;6.95;5.03;;;;;;;;;;5003277;28;20060;-33
2022/01/29 00:05:06;;;;;;;7.82;5.32;;;;;;;;;;5004577;28;20018;-31
2022/01/29 00:07:32;;;;;;;7.80;5.75;;;;;;;;;;5004375;28;20509;-36
2022/01/29 00:10:03;;;;;;;7.35;5.63;;;;;;;;;;5005287;28;20038;-36
2022/01/29 00:12:28;;;;;;;7.05;5.43;;;;;;;;;;4987774;28;20081;-34
2022/01/29 00:14:54;;;;;;;8.60;5.10;;;;;;;;;;4985336;28;20034;-35
2022/01/29 00:17:19;;;;;;;5.60;4.32;;;;;;;;;;4985043;28;20100;-32
2022/01/29 00:19:45;;;;;;;7.65;5.00;;;;;;;;;;4985230;28;20405;-31
2022/01/29 00:22:11;;;;;;;8.13;5.03;;;;;;;;;;4984189;28;20117;-36
2022/01/29 00:24:36;;;;;;;8.07;5.05;;;;;;;;;;4985502;28;20469;-35
2022/01/29 00:27:08;;;;;;;6.80;4.85;;;;;;;;;;4985051;28;20137;-35
2022/01/29 00:29:34;;;;;;;6.40;4.90;;;;;;;;;;5003954;28;20378;-36
2022/01/29 00:32:00;;;;;;;6.22;5.15;;;;;;;;;;4998616;28;20037;-34
2022/01/29 00:34:25;;;;;;;6.78;4.90;;;;;;;;;;4988931;28;20043;-35
2022/01/29 00:36:51;;;;;;;7.40;4.65;;;;;;;;;;4989326;28;20117;-32
2022/01/29 00:39:17;;;;;;;8.45;4.65;;;;;;;;;;5002510;28;20523;-36
2022/01/29 00:41:42;;;;;;;6.32;4.68;;;;;;;;;;4988803;28;20023;-35
2022/01/29 00:44:08;;;;;;;5.75;4.55;;;;;;;;;;4988834;28;20114;-33
2022/01/29 00:46:38;;;;;;;5.68;4.47;;;;;;;;;;4989004;28;20026;-38
2022/01/29 00:49:04;;;;;;;7.00;5.25;;;;;;;;;;4988686;28;20029;-37
2022/01/29 00:51:29;;;;;;;5.45;4.68;;;;;;;;;;4988666;28;20031;-36
2022/01/29 00:53:55;;;;;;;5.50;4.35;;;;;;;;;;4988804;28;20081;-32
2022/01/29 00:56:21;;;;;;;7.72;4.38;;;;;;;;;;4991662;28;20491;-36
2022/01/29 00:58:46;;;;;;;6.05;4.05;;;;;;;;;;4986194;28;20804;-32
2022/01/29 01:01:12;;;;;;;5.90;4.20;;;;;;;;;;4998351;28;20033;-31
2022/01/29 01:03:38;;;;;;;7.75;4.35;;;;;;;;;;5005894;28;20496;-31
2022/01/29 01:06:03;;;;;;;5.63;4.25;;;;;;;;;;5006016;28;20033;-32
2022/01/29 01:08:29;;;;;;;5.32;4.32;;;;;;;;;;5005831;28;20034;-32
2022/01/29 01:10:54;;;;;;;5.70;4.10;;;;;;;;;;5000287;28;20501;-31
2022/01/29 01:13:20;;;;;;;4.95;3.80;;;;;;;;;;4987677;28;20034;-34
2022/01/29 01:15:45;;;;;;;6.18;4.25;;;;;;;;;;4996772;28;20030;-34
2022/01/29 01:18:11;;;;;;;6.90;3.92;;;;;;;;;;4989569;28;20143;-31
2022/01/29 01:20:36;;;;;;;6.03;4.28;;;;;;;;;;5002823;28;20501;-29
2022/01/29 01:23:02;;;;;;;5.45;4.45;;;;;;;;;;4998643;28;20312;-37
2022/01/29 01:25:28;;;;;;;5.78;4.07;;;;;;;;;;5002264;28;20048;-35
2022/01/29 01:27:55;;;;;;;5.75;4.43;;;;;;;;;;5004844;28;20038;-44
2022/01/29 01:30:21;;;;;;;4.95;3.85;;;;;;;;;;4986315;28;20064;-32
2022/01/29 01:32:46;;;;;;;6.28;4.63;;;;;;;;;;4985852;28;20492;-39
2022/01/29 01:35:27;;;;;;;4.53;3.80;;;;;;;;;;5001012;28;20547;-33
2022/01/29 01:37:58;;;;;;;5.10;4.10;;;;;;;;;;4998140;28;20136;-37
2022/01/29 01:40:25;;;;;;;4.72;3.85;;;;;;;;;;5003764;28;20045;-36
2022/01/29 01:42:58;;;;;;;5.78;4.25;;;;;;;;;;5003173;28;20057;-35
2022/01/29 01:45:23;;;;;;;4.57;3.92;;;;;;;;;;5005055;28;20026;-33
2022/01/29 01:47:49;;;;;;;5.10;3.90;;;;;;;;;;5005154;28;20084;-37
2022/01/29 01:50:15;;;;;;;4.53;3.95;;;;;;;;;;4988943;28;20439;-33
2022/01/29 01:52:41;;;;;;;5.05;3.97;;;;;;;;;;4985387;28;20096;-31
2022/01/29 01:55:07;;;;;;;5.32;3.88;;;;;;;;;;4985343;28;20065;-34
2022/01/29 01:57:32;;;;;;;5.40;3.90;;;;;;;;;;4985207;28;20048;-38
2022/01/29 01:59:58;;;;;;;4.38;3.65;;;;;;;;;;4997052;28;20045;-31
2022/01/29 02:02:25;;;;;;;4.93;3.60;;;;;;;;;;5004578;28;20033;-34
2022/01/29 02:04:50;;;;;;;4.72;3.90;;;;;;;;;;5001063;28;20920;-40
2022/01/29 02:07:17;;;;;;;5.35;3.70;;;;;;;;;;4983293;28;20034;-33
2022/01/29 02:09:42;;;;;;;4.63;3.67;;;;;;;;;;4983576;28;20096;-35
2022/01/29 02:12:10;;;;;;;4.47;3.75;;;;;;;;;;4984819;28;20057;-32
2022/01/29 02:14:35;;;;;;;4.13;3.70;;;;;;;;;;4990076;28;20104;-39
2022/01/29 02:17:02;;;;;;;5.00;3.70;;;;;;;;;;5001204;28;20045;-34
2022/01/29 02:19:28;;;;;;;4.18;3.35;;;;;;;;;;5004111;28;20037;-36
2022/01/29 02:21:54;;;;;;;3.85;3.28;;;;;;;;;;5004370;28;20053;-35
2022/01/29 02:24:20;;;;;;;4.93;3.92;;;;;;;;;;4991384;28;20112;-33
2022/01/29 02:26:45;;;;;;;5.65;4.05;;;;;;;;;;4984579;28;20543;-33
2022/01/29 02:29:11;;;;;;;4.00;3.55;;;;;;;;;;4995212;28;20038;-32
2022/01/29 02:31:46;;;;;;;4.28;3.40;;;;;;;;;;4984291;28;20030;-37
2022/01/29 02:34:13;;;;;;;4.32;3.58;;;;;;;;;;4983638;28;20054;-38
2022/01/29 02:36:41;;;;;;;4.55;3.15;;;;;;;;;;4984026;28;20038;-37
2022/01/29 02:39:07;;;;;;;5.47;3.20;;;;;;;;;;4984181;28;20038;-33
2022/01/29 02:41:33;;;;;;;7.38;4.88;;;;;;;;;;4984535;28;20027;-32
2022/01/29 02:44:03;;;;;;;4.05;3.63;;;;;;;;;;4984042;28;20035;-32
2022/01/29 02:46:41;;;;;;;4.57;3.20;;;;;;;;;;4983909;28;20030;-38
2022/01/29 02:49:07;;;;;;;5.70;3.65;;;;;;;;;;4983832;28;20097;-40
2022/01/29 02:51:33;;;;;;;4.45;3.60;;;;;;;;;;4984112;28;20022;-37
2022/01/29 02:53:58;;;;;;;4.15;3.47;;;;;;;;;;4983341;28;20484;-37
2022/01/29 02:56:24;;;;;;;4.60;3.50;;;;;;;;;;4984615;28;20022;-34
2022/01/29 02:58:51;;;;;;;4.07;3.20;;;;;;;;;;4985635;28;20026;-30
2022/01/29 03:01:18;;;;;;;4.15;3.35;;;;;;;;;;4986368;28;20043;-34
2022/01/29 03:03:43;;;;;;;3.90;2.95;;;;;;;;;;5002896;28;20435;-37
2022/01/29 03:06:10;;;;;;;4.65;3.42;;;;;;;;;;4988611;28;20056;-39
2022/01/29 03:08:36;;;;;;;5.75;3.97;;;;;;;;;;4986398;28;20524;-32
2022/01/29 03:11:02;;;;;;;3.63;3.10;;;;;;;;;;4986617;28;20037;-41
2022/01/29 03:13:27;;;;;;;4.35;3.35;;;;;;;;;;4986511;28;20476;-38
2022/01/29 03:15:53;;;;;;;3.88;3.03;;;;;;;;;;4996312;28;20022;-33
2022/01/29 03:18:19;;;;;;;3.80;3.40;;;;;;;;;;5005902;28;20022;-32
2022/01/29 03:20:45;;;;;;;3.90;3.17;;;;;;;;;;5005496;28;20056;-35
2022/01/29 03:23:12;;;;;;;3.47;2.95;;;;;;;;;;5005615;28;20022;-30
2022/01/29 03:25:43;;;;;;;4.90;3.22;;;;;;;;;;5005534;28;20504;-36
2022/01/29 03:28:11;;;;;;;4.22;3.20;;;;;;;;;;5005815;28;20034;-36
2022/01/29 03:30:37;;;;;;;4.60;3.30;;;;;;;;;;5005594;28;20026;-34
2022/01/29 03:33:02;;;;;;;6.10;3.47;;;;;;;;;;5005551;28;20052;-30
2022/01/29 03:35:28;;;;;;;4.10;3.28;;;;;;;;;;5005182;28;20108;-38
2022/01/29 03:37:54;;;;;;;4.63;3.40;;;;;;;;;;5016428;28;20048;-32
2022/01/29 03:40:20;;;;;;;3.75;3.00;;;;;;;;;;5015733;28;20065;-34
2022/01/29 03:42:58;;;;;;;3.65;3.13;;;;;;;;;;5005652;28;20053;-36
2022/01/29 03:45:27;;;;;;;3.20;2.83;;;;;;;;;;5004410;28;20053;-37
2022/01/29 03:47:52;;;;;;;4.25;3.45;;;;;;;;;;5005359;28;20045;-32
2022/01/29 03:50:18;;;;;;;4.03;3.30;;;;;;;;;;5004834;28;20022;-33
2022/01/29 03:52:49;;;;;;;3.20;2.53;;;;;;;;;;5005755;28;20109;-37
2022/01/29 03:55:15;;;;;;;3.88;3.00;;;;;;;;;;5005623;28;20038;-34
2022/01/29 03:57:40;;;;;;;4.25;3.40;;;;;;;;;;4998674;28;20042;-37
2022/01/29 04:00:06;;;;;;;3.45;3.00;;;;;;;;;;4985843;28;20034;-38
2022/01/29 04:02:32;;;;;;;3.00;2.55;;;;;;;;;;4986143;28;20108;-36
2022/01/29 04:04:57;;;;;;;3.05;2.50;;;;;;;;;;4986086;28;20488;-33
2022/01/29 04:07:24;;;;;;;4.40;2.75;;;;;;;;;;4990115;28;20057;-34
2022/01/29 04:09:51;;;;;;;4.30;3.00;;;;;;;;;;4988985;28;20058;-32
2022/01/29 04:12:17;;;;;;;4.20;3.13;;;;;;;;;;4990198;28;20094;-34
2022/01/29 04:14:43;;;;;;;3.13;2.58;;;;;;;;;;4989966;28;20465;-33
2022/01/29 04:17:10;;;;;;;2.85;2.55;;;;;;;;;;4989775;28;20034;-37
2022/01/29 04:19:36;;;;;;;3.90;3.20;;;;;;;;;;4995346;28;20037;-39
2022/01/29 04:22:03;;;;;;;4.10;3.10;;;;;;;;;;5009425;28;20030;-36
2022/01/29 04:24:28;;;;;;;3.60;2.63;;;;;;;;;;5009165;28;20037;-37
2022/01/29 04:26:54;;;;;;;3.13;2.83;;;;;;;;;;5007740;28;20324;-37
2022/01/29 04:29:20;;;;;;;3.08;2.70;;;;;;;;;;5009387;28;20033;-35
2022/01/29 04:34:21;;;;;;;3.38;2.83;;;;;;;;;;4989219;28;20050;-37
2022/01/29 04:36:46;;;;;;;4.82;2.53;;;;;;;;;;4989275;28;20049;-34
2022/01/29 04:39:13;;;;;;;3.30;2.88;;;;;;;;;;4989087;28;20565;-37
2022/01/29 04:41:38;;;;;;;3.50;2.80;;;;;;;;;;4989024;28;20101;-37
2022/01/29 04:44:04;;;;;;;3.05;2.50;;;;;;;;;;4989259;28;20762;-36
2022/01/29 04:46:29;;;;;;;3.05;2.60;;;;;;;;;;4989124;28;20117;-40
2022/01/29 04:48:55;;;;;;;2.83;2.50;;;;;;;;;;4988924;28;20217;-36
2022/01/29 04:51:21;;;;;;;3.20;2.75;;;;;;;;;;4989055;28;20030;-34
2022/01/29 04:53:47;;;;;;;3.78;2.78;;;;;;;;;;4988751;28;20496;-34
2022/01/29 04:56:12;;;;;;;2.83;2.35;;;;;;;;;;5001572;28;20033;-35
2022/01/29 04:58:38;;;;;;;3.70;2.60;;;;;;;;;;4988324;28;20038;-37
2022/01/29 05:01:04;;;;;;;3.22;2.47;;;;;;;;;;4988133;28;20590;-37
2022/01/29 05:03:29;;;;;;;4.57;2.50;;;;;;;;;;4987245;28;20465;-35
2022/01/29 05:05:55;;;;;;;2.88;2.45;;;;;;;;;;4987197;28;20053;-37
2022/01/29 05:08:20;;;;;;;2.85;2.55;;;;;;;;;;4990667;28;20030;-39
2022/01/29 05:10:47;;;;;;;3.15;2.67;;;;;;;;;;5007976;28;20041;-35
2022/01/29 05:13:16;;;;;;;3.22;2.50;;;;;;;;;;5008469;28;20239;-38
2022/01/29 05:16:01;;;;;;;3.72;2.78;;;;;;;;;;5007803;28;20033;-34
2022/01/29 05:26:55;;;;;;;3.67;3.03;;;;;;;;;;5007783;28;20562;-35
2022/01/29 05:29:20;;;;;;;49.78;3.35;;;;;;;;;;5008116;28;20026;-34
2022/01/29 05:31:51;;;;;;;2.83;2.53;;;;;;;;;;5007165;28;20100;-33
2022/01/29 05:34:16;;;;;;;2.63;2.35;;;;;;;;;;5007630;28;20571;-36
2022/01/29 05:36:42;;;;;;;3.17;2.60;;;;;;;;;;5007825;28;20030;-40
2022/01/29 05:39:07;;;;;;;2.55;2.20;;;;;;;;;;5007327;28;20191;-38
2022/01/29 05:41:33;;;;;;;2.83;2.30;;;;;;;;;;5007759;28;20109;-40
2022/01/29 05:43:58;;;;;;;3.58;2.80;;;;;;;;;;5007492;28;20492;-34
2022/01/29 05:46:24;;;;;;;4.15;2.78;;;;;;;;;;5007500;28;20038;-37
2022/01/29 05:48:49;;;;;;;4.22;2.40;;;;;;;;;;5007555;28;20072;-36
2022/01/29 05:51:15;;;;;;;3.55;2.70;;;;;;;;;;5007781;28;20436;-36
2022/01/29 05:53:40;;;;;;;3.30;2.63;;;;;;;;;;5007374;28;20032;-36
2022/01/29 05:56:06;;;;;;;4.32;2.90;;;;;;;;;;4998382;28;20041;-34
2022/01/29 05:58:32;;;;;;;3.38;2.67;;;;;;;;;;4985978;28;20568;-31
2022/01/29 06:00:58;;;;;;;6.82;2.58;;;;;;;;;;4987969;28;20030;-34
2022/01/29 06:03:23;;;;;;;3.47;2.60;;;;;;;;;;4987735;28;20584;-37
2022/01/29 06:05:50;;;;;;;3.20;2.47;;;;;;;;;;4987321;28;20030;-38
2022/01/29 06:08:16;;;;;;;3.13;2.80;;;;;;;;;;4987624;28;20042;-39
2022/01/29 06:10:41;;;;;;;3.40;2.60;;;;;;;;;;4987600;28;20030;-37
2022/01/29 06:13:11;;;;;;;2.85;2.50;;;;;;;;;;4987491;28;20018;-36
2022/01/29 06:15:40;;;;;;;2.72;2.42;;;;;;;;;;4987192;28;20548;-39
2022/01/29 06:18:06;;;;;;;2.40;2.20;;;;;;;;;;4988533;28;20440;-34
2022/01/29 06:20:32;;;;;;;2.45;2.25;;;;;;;;;;4986707;28;20053;-39
2022/01/29 06:22:57;;;;;;;3.40;2.80;;;;;;;;;;4997171;28;20022;-40
2022/01/29 06:25:28;;;;;;;4.55;2.42;;;;;;;;;;5007082;28;20812;-34
2022/01/29 06:27:53;;;;;;;2.88;2.42;;;;;;;;;;5006423;28;20118;-33
2022/01/29 06:30:24;;;;;;;3.10;2.63;;;;;;;;;;5007363;28;20491;-36
2022/01/29 06:32:49;;;;;;;3.38;2.53;;;;;;;;;;5005937;28;20033;-38
2022/01/29 06:35:15;;;;;;;2.80;2.30;;;;;;;;;;5006219;28;20511;-37
2022/01/29 06:37:45;;;;;;;3.58;2.30;;;;;;;;;;5005759;28;20053;-36
2022/01/29 06:40:12;;;;;;;3.65;2.20;;;;;;;;;;5006818;28;20508;-38
2022/01/29 06:42:37;;;;;;;2.90;2.33;;;;;;;;;;5006632;28;20030;-35
2022/01/29 06:45:03;;;;;;;3.38;2.50;;;;;;;;;;5006588;28;20053;-33
2022/01/29 06:47:29;;;;;;;2.88;2.30;;;;;;;;;;5006481;28;20116;-32
2022/01/29 06:49:54;;;;;;;2.55;2.03;;;;;;;;;;5006875;28;20485;-37
2022/01/29 06:52:20;;;;;;;3.08;2.35;;;;;;;;;;5004078;28;20500;-38
2022/01/29 06:54:46;;;;;;;2.20;2.00;;;;;;;;;;4998324;28;20037;-36
2022/01/29 06:57:11;;;;;;;3.53;2.20;;;;;;;;;;5000802;28;20034;-36
2022/01/29 06:59:37;;;;;;;4.47;2.45;;;;;;;;;;4986390;28;20033;-38
2022/01/29 07:02:07;;;;;;;2.85;2.25;;;;;;;;;;4986611;28;20564;-37
2022/01/29 07:04:32;;;;;;;2.80;2.17;;;;;;;;;;4986447;28;20045;-31
2022/01/29 07:06:58;;;;;;;8.13;2.33;;;;;;;;;;4999773;28;20029;-34
2022/01/29 07:09:23;;;;;;;3.20;2.25;;;;;;;;;;5005122;28;20026;-37
2022/01/29 07:11:55;;;;;;;5.88;2.10;;;;;;;;;;4995734;28;20037;-37
2022/01/29 07:14:20;;;;;;;12.15;2.35;;;;;;;;;;5006354;28;20424;-35
2022/01/29 07:16:46;;;;;;;9.10;2.40;;;;;;;;;;5000551;28;20033;-39
2022/01/29 07:19:11;;;;;;;6.95;3.92;;;;;;;;;;4994943;28;20046;-38
2022/01/29 07:21:37;;;;;;;7.07;4.90;;;;;;;;;;4986738;28;20030;-39
2022/01/29 07:24:03;;;;;;;10.23;5.82;;;;;;;;;;4996909;28;20030;-37
2022/01/29 07:26:29;;;;;;;11.07;6.15;;;;;;;;;;5005968;28;20194;-33
2022/01/29 07:28:55;;;;;;;12.45;5.50;;;;;;;;;;4988996;28;20503;-36
2022/01/29 07:31:21;;;;;;;18.90;6.03;;;;;;;;;;5005365;28;20034;-35
2022/01/29 07:33:46;;;;;;;19.98;10.60;;;;;;;;;;5006727;28;20566;-37
2022/01/29 07:36:12;;;;;;;84.55;37.03;;;;;;;;;;5016025;28;20112;-33
2022/01/29 07:38:37;;;;;;;115.55;54.90;;;;;;;;;;5010013;28;20485;-34
2022/01/29 07:41:03;;;;;;;114.90;58.00;;;;;;;;;;5004842;28;20092;-38
2022/01/29 07:43:28;;;;;;;162.20;83.38;;;;;;;;;;5005628;28;20096;-34
2022/01/29 07:45:54;;;;;;;324.80;162.57;;;;;;;;;;5004787;28;20496;-35
2022/01/29 07:48:20;;;;;;;202.98;96.90;;;;;;;;;;4997169;28;20065;-37
2022/01/29 07:50:46;;;;;;;246.70;131.82;;;;;;;;;;4997581;28;20046;-33
2022/01/29 07:53:11;;;;;;;222.35;115.40;;;;;;;;;;4993871;28;20026;-38
2022/01/29 07:55:37;;;;;;;207.32;110.10;;;;;;;;;;5002595;28;20046;-36
2022/01/29 07:58:04;;;;;;;171.38;95.00;;;;;;;;;;4995769;28;20072;-39
2022/01/29 08:00:30;;;;;;;161.10;84.47;;;;;;;;;;5002312;28;20587;-38
2022/01/29 08:02:56;;;;;;;154.18;81.40;;;;;;;;;;4993066;28;20117;-37
2022/01/29 08:05:22;;;;;;;157.20;79.50;;;;;;;;;;4992944;28;20030;-35
2022/01/29 08:07:48;;;;;;;138.07;75.75;;;;;;;;;;4990350;28;20037;-32
2022/01/29 08:10:14;;;;;;;146.10;71.93;;;;;;;;;;5000437;28;20034;-33
2022/01/29 08:12:40;;;;;;;140.63;71.85;;;;;;;;;;5002383;28;20033;-37
2022/01/29 08:15:06;;;;;;;126.32;68.45;;;;;;;;;;5001749;28;20065;-30
2022/01/29 08:17:32;;;;;;;126.95;67.70;;;;;;;;;;5002129;28;20650;-35
2022/01/29 08:19:58;;;;;;;123.55;65.55;;;;;;;;;;5002321;28;20117;-33
2022/01/29 08:22:25;;;;;;;121.65;63.00;;;;;;;;;;5002851;28;20033;-37
2022/01/29 08:24:52;;;;;;;117.50;61.38;;;;;;;;;;4998791;28;20497;-36
2022/01/29 08:27:18;;;;;;;111.38;57.83;;;;;;;;;;4998707;28;20536;-32
2022/01/29 08:29:43;;;;;;;100.32;50.78;;;;;;;;;;4994948;28;20042;-38
2022/01/29 08:32:09;;;;;;;110.65;51.95;;;;;;;;;;5002449;28;20037;-32
2022/01/29 08:34:35;;;;;;;90.85;49.60;;;;;;;;;;5001865;28;20050;-35
2022/01/29 08:37:03;;;;;;;93.72;49.35;;;;;;;;;;5001240;28;20030;-37
2022/01/29 08:39:28;;;;;;;88.78;46.67;;;;;;;;;;5002156;28;20391;-36
2022/01/29 08:41:54;;;;;;;93.00;48.25;;;;;;;;;;5002385;28;20029;-35
2022/01/29 08:44:20;;;;;;;87.10;45.58;;;;;;;;;;5002131;28;20462;-31
2022/01/29 08:46:45;;;;;;;90.05;45.40;;;;;;;;;;5002469;28;20523;-38
2022/01/29 08:49:11;;;;;;;83.10;42.20;;;;;;;;;;5000207;28;20030;-37
2022/01/29 08:51:37;;;;;;;79.55;44.35;;;;;;;;;;5001266;28;20057;-35
2022/01/29 08:54:02;;;;;;;79.75;42.78;;;;;;;;;;5003876;28;20034;-33
2022/01/29 08:56:28;;;;;;;78.28;42.50;;;;;;;;;;5004872;28;20030;-38
2022/01/29 08:58:54;;;;;;;74.47;41.33;;;;;;;;;;5002454;28;20493;-35
2022/01/29 09:01:19;;;;;;;70.70;38.22;;;;;;;;;;5006207;28;20026;-31
2022/01/29 09:03:45;;;;;;;71.13;38.00;;;;;;;;;;4994483;28;20489;-37
2022/01/29 09:06:11;;;;;;;67.50;36.42;;;;;;;;;;4997932;28;20416;-39
2022/01/29 09:08:38;;;;;;;55.90;32.30;;;;;;;;;;5005549;28;20080;-38
2022/01/29 09:11:04;;;;;;;62.90;34.97;;;;;;;;;;5001930;28;20514;-32
2022/01/29 09:13:30;;;;;;;59.40;34.17;;;;;;;;;;5003207;28;20186;-37
2022/01/29 09:15:56;;;;;;;64.20;34.95;;;;;;;;;;5005638;28;20472;-39
2022/01/29 09:18:22;;;;;;;57.00;32.28;;;;;;;;;;5001444;28;20041;-34
2022/01/29 09:20:48;;;;;;;57.47;30.88;;;;;;;;;;5004299;28;20445;-41
2022/01/29 09:23:13;;;;;;;57.85;32.22;;;;;;;;;;5004752;28;20048;-33
2022/01/29 09:25:39;;;;;;;67.35;31.95;;;;;;;;;;5004624;28;20033;-37
2022/01/29 09:28:05;;;;;;;50.70;28.40;;;;;;;;;;5003994;28;20069;-35
2022/01/29 09:30:31;;;;;;;53.22;30.00;;;;;;;;;;5007681;28;20476;-36
2022/01/29 09:33:01;;;;;;;54.00;29.25;;;;;;;;;;5005691;28;20058;-35
2022/01/29 09:35:27;;;;;;;60.80;29.92;;;;;;;;;;5007853;28;20030;-41
2022/01/29 09:37:54;;;;;;;49.53;26.00;;;;;;;;;;5007526;28;20354;-40
2022/01/29 09:40:20;;;;;;;47.88;25.38;;;;;;;;;;5006537;28;20558;-35
2022/01/29 09:42:48;;;;;;;47.35;25.63;;;;;;;;;;5006776;28;20030;-32
2022/01/29 09:45:19;;;;;;;48.00;22.95;;;;;;;;;;5009881;28;20059;-37
2022/01/29 09:47:46;;;;;;;44.03;22.02;;;;;;;;;;5007226;28;20356;-35
2022/01/29 09:50:14;;;;;;;38.58;21.48;;;;;;;;;;5012693;28;20084;-35
2022/01/29 09:52:39;;;;;;;38.80;22.55;;;;;;;;;;5006816;28;20550;-36
2022/01/29 09:55:06;;;;;;;48.50;22.17;;;;;;;;;;5005394;28;20038;-35
2022/01/29 09:57:31;;;;;;;36.08;21.65;;;;;;;;;;5006961;28;20022;-36
2022/01/29 09:59:57;;;;;;;45.00;23.08;;;;;;;;;;5007828;28;20097;-37
2022/01/29 10:02:23;;;;;;;40.55;20.90;;;;;;;;;;5007257;28;20488;-40
2022/01/29 10:04:55;;;;;;;36.25;21.00;;;;;;;;;;5006453;28;20014;-36
2022/01/29 10:07:28;;;;;;;37.47;20.80;;;;;;;;;;5004875;28;20042;-32
2022/01/29 10:09:57;;;;;;;35.67;20.35;;;;;;;;;;5005291;28;20416;-37
2022/01/29 10:12:27;;;;;;;36.15;20.33;;;;;;;;;;5005210;28;20143;-38
2022/01/29 10:14:56;;;;;;;34.30;19.52;;;;;;;;;;5006802;28;20021;-39
2022/01/29 10:17:45;;;;;;;40.35;21.38;;;;;;;;;;5006045;28;20034;-35
2022/01/29 10:20:12;;;;;;;35.42;19.15;;;;;;;;;;5005554;28;20022;-35
2022/01/29 10:22:40;;;;;;;35.88;19.92;;;;;;;;;;5005635;28;20022;-35
2022/01/29 10:25:23;;;;;;;31.08;18.38;;;;;;;;;;5006328;28;20046;-37
2022/01/29 10:28:07;;;;;;;29.55;18.75;;;;;;;;;;5006312;28;20049;-36
2022/01/29 10:30:38;;;;;;;28.75;18.20;;;;;;;;;;5006274;28;20574;-33
2022/01/29 10:33:23;;;;;;;29.40;17.52;;;;;;;;;;5004988;28;20123;-37
2022/01/29 10:35:51;;;;;;;31.23;17.73;;;;;;;;;;5006635;28;20385;-35
2022/01/29 10:38:45;;;;;;;30.55;17.50;;;;;;;;;;5005177;28;20030;-35
2022/01/29 10:41:29;;;;;;;32.38;17.17;;;;;;;;;;5006657;28;20030;-37
2022/01/29 10:43:54;;;;;;;;;;;;;;;;;;5006862;28;20034;-34
2022/01/29 10:46:30;;;;;;;32.95;17.42;;;;;;;;;;5006861;28;19936;-33
2022/01/29 10:48:56;;;;;;;30.33;15.93;;;;;;;;;;5006207;28;20117;-31
2022/01/29 10:51:22;;;;;;;28.23;16.00;;;;;;;;;;4997376;28;20042;-36
2022/01/29 10:53:47;;;;;;;31.77;16.52;;;;;;;;;;4987259;28;20033;-30
2022/01/29 10:56:13;;;;;;;34.22;15.68;;;;;;;;;;4986520;28;20159;-33
2022/01/29 10:58:40;;;;;;;30.02;16.77;;;;;;;;;;4986614;28;20042;-35
2022/01/29 11:01:19;;;;;;;26.73;15.98;;;;;;;;;;4986367;28;20062;-33
2022/01/29 11:03:44;;;;;;;23.25;14.98;;;;;;;;;;4986475;28;20034;-36
2022/01/29 11:06:17;;;;;;;25.33;15.48;;;;;;;;;;4986424;28;20460;-33
2022/01/29 11:08:43;;;;;;;24.27;14.77;;;;;;;;;;4986022;28;20030;-33
2022/01/29 11:11:08;;;;;;;24.27;14.73;;;;;;;;;;4986209;28;20041;-35
2022/01/29 11:13:34;;;;;;;24.42;14.75;;;;;;;;;;4985001;28;20022;-36
2022/01/29 11:16:00;;;;;;;24.90;14.23;;;;;;;;;;4983960;28;20026;-34
2022/01/29 11:18:27;;;;;;;22.73;13.60;;;;;;;;;;4984711;28;20041;-35
2022/01/29 11:20:53;;;;;;;21.77;13.07;;;;;;;;;;4986355;28;20065;-38
2022/01/29 11:23:19;;;;;;;21.55;13.23;;;;;;;;;;4986258;28;20516;-35
2022/01/29 11:25:47;;;;;;;21.95;12.77;;;;;;;;;;4984695;28;20085;-34
2022/01/29 11:28:15;;;;;;;22.38;13.35;;;;;;;;;;4986364;28;20464;-37
2022/01/29 11:30:42;;;;;;;20.67;11.82;;;;;;;;;;4986083;28;20409;-35
2022/01/29 11:33:08;;;;;;;19.20;11.27;;;;;;;;;;4985652;28;20129;-30
2022/01/29 11:35:36;;;;;;;23.00;13.25;;;;;;;;;;4985850;28;20022;-34
2022/01/29 11:38:01;;;;;;;19.65;12.82;;;;;;;;;;4968315;28;20042;-38
2022/01/29 11:40:39;;;;;;;20.05;11.93;;;;;;;;;;4985934;28;20034;-38
2022/01/29 11:43:09;;;;;;;23.60;12.68;;;;;;;;;;4985710;28;20570;-36
2022/01/29 11:45:48;;;;;;;19.60;12.00;;;;;;;;;;4985698;28;20034;-36
2022/01/29 11:48:22;;;;;;;21.90;11.80;;;;;;;;;;4986159;28;20034;-32
2022/01/29 11:50:48;;;;;;;18.05;11.32;;;;;;;;;;4993537;28;20038;-37
2022/01/29 11:53:16;;;;;;;17.50;10.32;;;;;;;;;;5006137;28;20433;-35
2022/01/29 11:55:46;;;;;;;17.02;11.05;;;;;;;;;;5005688;28;20117;-36
2022/01/29 11:58:16;;;;;;;17.38;11.15;;;;;;;;;;5004207;28;20034;-38
2022/01/29 12:00:41;;;;;;;16.20;10.70;;;;;;;;;;5004987;28;20030;-32
2022/01/29 12:03:07;;;;;;;18.13;11.32;;;;;;;;;;5004747;28;20026;-33
2022/01/29 12:08:42;;;;;;;19.55;10.73;;;;;;;;;;5003602;28;20061;-34
2022/01/29 12:11:11;;;;;;;15.95;10.00;;;;;;;;;;5002715;28;20026;-33
2022/01/29 12:13:42;;;;;;;15.73;10.00;;;;;;;;;;5005059;28;20076;-33
2022/01/29 12:16:49;;;;;;;17.27;10.35;;;;;;;;;;5005537;28;20116;-38
2022/01/29 12:19:43;;;;;;;14.00;9.70;;;;;;;;;;5005069;28;20568;-38
2022/01/29 12:22:10;;;;;;;14.20;9.23;;;;;;;;;;5005170;28;20053;-33
2022/01/29 12:24:38;;;;;;;15.35;10.02;;;;;;;;;;5005644;28;20034;-39
2022/01/29 12:27:05;;;;;;;14.10;9.30;;;;;;;;;;5006980;28;20489;-33
2022/01/29 12:29:30;;;;;;;13.32;8.88;;;;;;;;;;5009321;28;20024;-34
2022/01/29 12:31:57;;;;;;;13.98;9.35;;;;;;;;;;5009075;28;20040;-33
2022/01/29 12:34:24;;;;;;;14.20;9.93;;;;;;;;;;5009170;28;20440;-31
2022/01/29 12:36:50;;;;;;;12.15;8.70;;;;;;;;;;5008575;28;20026;-33
2022/01/29 12:39:23;;;;;;;13.38;8.95;;;;;;;;;;5009406;28;20034;-35
2022/01/29 12:42:11;;;;;;;14.98;9.10;;;;;;;;;;5008887;28;20144;-32
2022/01/29 12:44:40;;;;;;;14.23;9.25;;;;;;;;;;5008808;28;20034;-36
2022/01/29 12:47:06;;;;;;;13.00;8.52;;;;;;;;;;5008403;28;20116;-37
2022/01/29 12:49:41;;;;;;;13.20;9.13;;;;;;;;;;5007710;28;20168;-34
2022/01/29 12:52:08;;;;;;;11.93;8.57;;;;;;;;;;4989183;28;20132;-37
2022/01/29 12:54:34;;;;;;;14.77;8.73;;;;;;;;;;4989088;28;20038;-33
2022/01/29 12:57:04;;;;;;;11.93;7.82;;;;;;;;;;4987303;28;20026;-34
2022/01/29 12:59:30;;;;;;;14.45;9.30;;;;;;;;;;4988900;28;20169;-33
2022/01/29 13:01:56;;;;;;;11.45;8.07;;;;;;;;;;4987077;28;20610;-35
2022/01/29 13:04:22;;;;;;;13.05;8.20;;;;;;;;;;4988994;28;20042;-35
2022/01/29 13:07:07;;;;;;;11.82;7.95;;;;;;;;;;4988493;28;20084;-34
2022/01/29 13:09:37;;;;;;;12.05;7.80;;;;;;;;;;4988625;28;20049;-35
2022/01/29 13:12:07;;;;;;;11.70;7.43;;;;;;;;;;4988389;28;20035;-39
2022/01/29 13:14:35;;;;;;;12.68;8.02;;;;;;;;;;4989071;28;20034;-36
2022/01/29 13:17:08;;;;;;;10.60;7.65;;;;;;;;;;4989284;28;20026;-34
2022/01/29 13:19:34;;;;;;;10.65;7.72;;;;;;;;;;4988287;28;20022;-36
2022/01/29 13:22:07;;;;;;;12.00;8.05;;;;;;;;;;4987005;28;20057;-33
2022/01/29 13:24:39;;;;;;;10.27;7.13;;;;;;;;;;4988202;28;20323;-35
2022/01/29 13:27:11;;;;;;;10.50;6.53;;;;;;;;;;4989015;28;20125;-39
2022/01/29 13:29:55;;;;;;;11.20;7.50;;;;;;;;;;4988106;28;20100;-37
2022/01/29 13:32:27;;;;;;;10.18;7.07;;;;;;;;;;5003236;28;20061;-30
2022/01/29 13:34:52;;;;;;;11.45;7.57;;;;;;;;;;5007634;28;20050;-36
2022/01/29 13:37:35;;;;;;;10.38;7.03;;;;;;;;;;5008292;28;20079;-33
2022/01/29 13:40:04;;;;;;;10.60;7.18;;;;;;;;;;5007318;28;20025;-35
2022/01/29 13:42:32;;;;;;;11.10;7.07;;;;;;;;;;5007689;28;20022;-33
2022/01/29 13:45:20;;;;;;;11.25;6.50;;;;;;;;;;4995204;28;20480;-37
2022/01/29 13:48:10;;;;;;;11.05;6.72;;;;;;;;;;4987860;28;20119;-31
2022/01/29 13:50:53;;;;;;;10.13;7.03;;;;;;;;;;4989294;28;20055;-34
2022/01/29 13:53:20;;;;;;;9.45;6.90;;;;;;;;;;4997762;28;20056;-35
2022/01/29 13:56:08;;;;;;;10.10;7.03;;;;;;;;;;5007002;28;20030;-34
2022/01/29 13:58:57;;;;;;;9.10;6.75;;;;;;;;;;5006119;28;20417;-32
2022/01/29 14:01:41;;;;;;;10.82;7.50;;;;;;;;;;5005935;28;20117;-30
2022/01/29 14:04:38;;;;;;;10.02;6.90;;;;;;;;;;5007811;28;20296;-36
2022/01/29 14:07:06;;;;;;;9.45;6.93;;;;;;;;;;5007756;28;20504;-33
2022/01/29 14:09:41;;;;;;;10.55;6.65;;;;;;;;;;5007460;28;20781;-34
2022/01/29 14:12:19;;;;;;;9.43;6.72;;;;;;;;;;5006504;28;20021;-31
2022/01/29 14:14:56;;;;;;;9.40;6.60;;;;;;;;;;5007026;28;20105;-34
2022/01/29 14:17:33;;;;;;;8.48;6.75;;;;;;;;;;4995335;28;20039;-32
2022/01/29 14:20:13;;;;;;;8.48;5.95;;;;;;;;;;4987319;28;20033;-30
2022/01/29 14:22:39;;;;;;;8.02;5.75;;;;;;;;;;4986662;28;20033;-31
2022/01/29 14:25:07;;;;;;;9.35;7.13;;;;;;;;;;4987785;28;20038;-39
2022/01/29 14:27:33;;;;;;;8.98;6.10;;;;;;;;;;4987459;28;20026;-33
2022/01/29 14:29:59;;;;;;;8.25;6.32;;;;;;;;;;4986861;28;20037;-31
2022/01/29 14:32:25;;;;;;;9.18;6.20;;;;;;;;;;4987188;28;20023;-34
2022/01/29 14:34:52;;;;;;;10.23;5.70;;;;;;;;;;4987066;28;20051;-35
2022/01/29 14:37:18;;;;;;;8.77;6.15;;;;;;;;;;4987104;28;20712;-34
2022/01/29 14:39:47;;;;;;;8.90;6.28;;;;;;;;;;4987344;28;20053;-36
2022/01/29 14:42:24;;;;;;;8.35;5.85;;;;;;;;;;4987124;28;20026;-33
2022/01/29 14:44:49;;;;;;;9.18;5.97;;;;;;;;;;4986878;28;20483;-37
2022/01/29 14:47:15;;;;;;;7.65;6.28;;;;;;;;;;4987075;28;20018;-36
2022/01/29 14:49:46;;;;;;;9.00;6.28;;;;;;;;;;5001432;28;20034;-37